Time;durP1;ratioP1;P1;durP2;ratioP2;P2;SDS_P1;SDS_P2;PMS_P1;PMS_P2;Temp;Humidity;BMP_temperature;BMP_pressure;BME280_temperature;BME280_humidity;BME280_pressure;Samples;Min_cycle;Max_cycle;Signal;HPM_P1;HPM_P2
2023/05/20 00:01:29;;;;;;;6.57;3.08;;;;;;;16.72;41.28;102323.88;5030281;28;114514;-68
2023/05/20 00:03:56;;;;;;;8.93;3.03;;;;;;;16.69;41.44;102316.00;5019069;28;124373;-68
2023/05/20 00:06:23;;;;;;;7.72;3.03;;;;;;;16.66;41.62;102314.31;5026440;28;123876;-68
2023/05/20 00:08:51;;;;;;;6.90;3.20;;;;;;;16.61;41.79;102319.00;5031512;28;114849;-68
2023/05/20 00:11:18;;;;;;;10.90;3.65;;;;;;;16.59;41.84;102320.03;5046133;28;114420;-68
2023/05/20 00:13:46;;;;;;;8.85;3.28;;;;;;;16.55;41.94;102328.19;4997506;28;123835;-68
2023/05/20 00:16:13;;;;;;;7.18;3.38;;;;;;;16.52;41.77;102324.81;5030041;28;124110;-68
2023/05/20 00:18:40;;;;;;;8.10;3.40;;;;;;;16.47;42.00;102327.69;5027807;28;115177;-68
2023/05/20 00:21:07;;;;;;;8.57;3.60;;;;;;;16.44;42.26;102322.47;5010127;28;115262;-68
2023/05/20 00:23:34;;;;;;;7.30;3.78;;;;;;;16.41;42.42;102325.31;4991476;28;124020;-68
2023/05/20 00:26:03;;;;;;;8.55;3.20;;;;;;;16.39;42.44;102324.50;5028988;28;123739;-67
2023/05/20 00:28:30;;;;;;;9.65;3.53;;;;;;;16.36;42.34;102319.28;5016329;28;115424;-68
2023/05/20 00:30:57;;;;;;;8.77;3.33;;;;;;;16.35;42.61;102322.94;5028517;28;113986;-68
2023/05/20 00:33:24;;;;;;;9.05;3.47;;;;;;;16.32;42.87;102325.72;5029355;28;125279;-68
2023/05/20 00:35:51;;;;;;;8.48;3.80;;;;;;;16.30;42.73;102314.25;5029417;28;123657;-68
2023/05/20 00:38:19;;;;;;;6.85;4.00;;;;;;;16.27;42.79;102314.38;5029913;28;115177;-68
2023/05/20 00:40:47;;;;;;;6.05;3.60;;;;;;;16.24;42.85;102319.88;5029323;28;114574;-68
2023/05/20 00:43:14;;;;;;;7.82;3.33;;;;;;;16.22;42.94;102313.69;5010476;28;123584;-67
2023/05/20 00:45:41;;;;;;;11.57;3.90;;;;;;;16.20;43.12;102312.91;5009695;27;123661;-68
2023/05/20 00:48:09;;;;;;;7.72;3.58;;;;;;;16.17;43.19;102313.06;5010442;28;113435;-68
2023/05/20 00:50:36;;;;;;;8.38;3.55;;;;;;;16.14;43.29;102309.59;5011062;28;113065;-68
2023/05/20 00:53:05;;;;;;;9.52;3.67;;;;;;;16.13;43.39;102306.97;5029044;28;124012;-68
2023/05/20 00:55:32;;;;;;;6.95;3.58;;;;;;;16.10;43.28;102307.09;5027945;28;123560;-68
2023/05/20 00:58:00;;;;;;;10.55;4.10;;;;;;;16.08;43.28;102307.16;5010283;28;113617;-68
2023/05/20 01:00:27;;;;;;;7.00;3.70;;;;;;;16.05;43.60;102307.31;5011011;28;113375;-68
2023/05/20 01:02:55;;;;;;;9.50;3.92;;;;;;;16.02;43.59;102307.44;5010118;28;123084;-68
2023/05/20 01:05:23;;;;;;;5.88;3.80;;;;;;;15.98;43.61;102308.53;5026916;28;124005;-68
2023/05/20 01:07:50;;;;;;;8.60;3.80;;;;;;;15.94;43.70;102312.28;4993536;28;114323;-68
2023/05/20 01:10:18;;;;;;;8.57;3.85;;;;;;;15.92;43.69;102308.81;5013653;28;114684;-68
2023/05/20 01:12:50;;;;;;;8.98;3.95;;;;;;;15.90;43.71;102310.69;5008371;28;124636;-68
2023/05/20 01:15:20;;;;;;;8.93;3.60;;;;;;;15.89;43.93;102315.13;5008618;28;124279;-68
2023/05/20 01:17:51;;;;;;;6.15;3.63;;;;;;;15.86;44.09;102309.06;5005851;28;114862;-68
2023/05/20 01:20:19;;;;;;;8.90;4.05;;;;;;;15.86;43.85;102303.72;5006437;28;114542;-68
2023/05/20 01:22:54;;;;;;;6.18;3.33;;;;;;;15.84;44.19;102300.25;5008712;28;123878;-68
2023/05/20 01:25:23;;;;;;;7.40;3.78;;;;;;;15.83;44.10;102298.53;5014724;28;124073;-69
2023/05/20 01:27:53;;;;;;;8.18;3.75;;;;;;;15.81;44.33;102301.25;4995757;28;115139;-68
2023/05/20 01:30:21;;;;;;;8.10;3.65;;;;;;;15.79;44.39;102303.13;5008991;28;115247;-68
2023/05/20 01:32:56;;;;;;;10.15;3.88;;;;;;;15.77;44.56;102300.53;5007428;28;124457;-68
2023/05/20 01:35:24;;;;;;;8.98;4.03;;;;;;;15.76;44.45;102304.16;4988229;28;123912;-68
2023/05/20 01:37:52;;;;;;;8.40;4.07;;;;;;;15.75;44.58;102291.72;4990299;28;112811;-68
2023/05/20 01:40:22;;;;;;;9.60;3.95;;;;;;;15.74;44.65;102295.31;4987014;28;112781;-68
2023/05/20 01:42:53;;;;;;;6.60;4.00;;;;;;;15.73;44.78;102288.25;5006076;28;123287;-68
2023/05/20 01:45:23;;;;;;;9.52;3.85;;;;;;;15.70;44.85;102291.00;4989163;28;123055;-68
2023/05/20 01:47:50;;;;;;;9.85;4.20;;;;;;;15.70;44.81;102293.66;5001650;28;113729;-68
2023/05/20 01:50:18;;;;;;;9.13;4.00;;;;;;;15.69;45.01;102291.94;5008655;28;114722;-68
2023/05/20 01:52:45;;;;;;;7.78;3.65;;;;;;;15.69;45.06;102296.41;5008074;28;123637;-68
2023/05/20 01:55:13;;;;;;;7.95;3.80;;;;;;;15.70;45.00;102290.13;4989254;28;124393;-68
2023/05/20 01:57:40;;;;;;;9.65;4.28;;;;;;;15.70;45.15;102288.31;4990112;28;114438;-68
2023/05/20 02:00:10;;;;;;;18.05;4.25;;;;;;;15.71;45.27;102287.41;4993851;28;114605;-68
2023/05/20 02:02:40;;;;;;;9.30;3.83;;;;;;;15.70;45.36;102276.78;5011307;28;124789;-68
2023/05/20 02:05:10;;;;;;;8.45;4.07;;;;;;;15.68;45.39;102279.50;4976838;28;124460;-68
2023/05/20 02:07:37;;;;;;;8.75;3.90;;;;;;;15.69;45.50;102286.59;5011773;28;114324;-68
2023/05/20 02:10:04;;;;;;;9.10;3.83;;;;;;;15.68;45.41;102279.50;5011795;28;114270;-68
2023/05/20 02:12:32;;;;;;;8.45;4.10;;;;;;;15.69;45.49;102275.91;4976527;28;125991;-68
2023/05/20 02:14:59;;;;;;;8.85;4.30;;;;;;;15.68;45.64;102282.19;4993347;28;124386;-68
2023/05/20 02:17:26;;;;;;;12.80;3.97;;;;;;;15.67;45.64;102277.78;4993384;28;113320;-68
2023/05/20 02:19:53;;;;;;;7.80;3.97;;;;;;;15.67;45.69;102275.13;4993811;28;113736;-68
2023/05/20 02:22:20;;;;;;;9.23;4.05;;;;;;;15.66;45.70;102281.38;4976536;28;123617;-68
2023/05/20 02:24:47;;;;;;;7.82;3.85;;;;;;;15.67;45.83;102277.78;4993052;28;122648;-68
2023/05/20 02:27:15;;;;;;;6.53;4.00;;;;;;;15.67;45.66;102276.91;4994017;28;112880;-68
2023/05/20 02:29:43;;;;;;;8.98;4.30;;;;;;;15.66;45.83;102276.03;4993194;28;113414;-68
2023/05/20 02:32:11;;;;;;;10.38;4.20;;;;;;;15.64;45.96;102267.22;4993210;28;123212;-68
2023/05/20 02:34:38;;;;;;;5.85;3.78;;;;;;;15.65;46.09;102268.97;5013530;28;123264;-68
2023/05/20 02:37:05;;;;;;;6.57;4.10;;;;;;;15.60;46.18;102265.63;4993404;28;113608;-68
2023/05/20 02:39:33;;;;;;;9.25;4.03;;;;;;;15.57;46.21;102271.97;4996668;28;113462;-68
2023/05/20 02:42:00;;;;;;;7.20;3.90;;;;;;;15.54;46.16;102271.25;5020379;28;125177;-68
2023/05/20 02:44:27;;;;;;;7.22;3.95;;;;;;;15.51;46.29;102276.72;5010906;28;124030;-68
2023/05/20 02:46:55;;;;;;;6.60;3.78;;;;;;;15.48;46.40;102277.72;4992508;28;114333;-68
2023/05/20 02:49:23;;;;;;;7.97;4.10;;;;;;;15.46;46.45;102278.69;5009473;28;114474;-68
2023/05/20 02:51:51;;;;;;;13.10;4.53;;;;;;;15.44;46.38;102272.56;4976679;28;123247;-68
2023/05/20 02:54:18;;;;;;;9.00;4.50;;;;;;;15.41;46.65;102278.03;4992454;28;123145;-68
2023/05/20 02:56:45;;;;;;;9.13;4.43;;;;;;;15.38;46.61;102271.88;4992492;28;115533;-68
2023/05/20 02:59:12;;;;;;;7.75;4.38;;;;;;;15.36;46.68;102273.75;4992484;28;113179;-68
2023/05/20 03:01:40;;;;;;;8.07;4.07;;;;;;;15.33;46.77;102273.91;4992806;28;123101;-68
2023/05/20 03:04:08;;;;;;;8.20;4.25;;;;;;;15.31;46.86;102264.19;4992225;28;124151;-68
2023/05/20 03:06:37;;;;;;;8.05;4.22;;;;;;;15.27;46.88;102268.78;4992679;28;113901;-68
2023/05/20 03:09:04;;;;;;;7.85;4.45;;;;;;;15.26;46.99;102266.22;4992112;28;113523;-68
2023/05/20 03:11:31;;;;;;;8.80;4.30;;;;;;;15.23;47.02;102264.53;4990968;28;124373;-68
2023/05/20 03:13:59;;;;;;;8.35;4.20;;;;;;;15.21;47.20;102258.38;5010289;28;124314;-68
2023/05/20 03:16:26;;;;;;;9.88;4.70;;;;;;;15.17;47.34;102259.44;4991437;28;115302;-68
2023/05/20 03:18:54;;;;;;;11.70;4.50;;;;;;;15.14;47.37;102265.78;4992285;28;112867;-68
2023/05/20 03:21:22;;;;;;;11.13;4.53;;;;;;;15.14;47.31;102267.56;4991700;28;123802;-68
2023/05/20 03:23:50;;;;;;;9.63;4.40;;;;;;;15.11;47.26;102267.72;4991016;28;123037;-68
2023/05/20 03:26:18;;;;;;;10.38;4.40;;;;;;;15.10;47.54;102265.97;4992226;28;113197;-68
2023/05/20 03:28:45;;;;;;;9.35;4.20;;;;;;;15.07;47.45;102266.97;5010373;28;114273;-68
2023/05/20 03:31:12;;;;;;;9.63;4.30;;;;;;;15.05;47.61;102267.94;4992190;28;123918;-68
2023/05/20 03:33:39;;;;;;;8.55;4.88;;;;;;;15.05;47.60;102270.63;5006716;28;124739;-68
2023/05/20 03:36:07;;;;;;;7.57;4.30;;;;;;;15.04;47.67;102266.22;4990519;28;114272;-68
2023/05/20 03:38:35;;;;;;;10.45;4.45;;;;;;;15.01;47.83;102267.19;5009848;28;115316;-68
2023/05/20 03:41:02;;;;;;;8.98;4.57;;;;;;;15.01;47.77;102269.88;4991179;28;123222;-69
2023/05/20 03:43:29;;;;;;;8.48;4.70;;;;;;;14.99;47.79;102264.63;4990484;28;123499;-68
2023/05/20 03:45:57;;;;;;;12.65;4.50;;;;;;;14.98;47.92;102267.34;4991671;28;114621;-68
2023/05/20 03:48:24;;;;;;;9.90;4.50;;;;;;;14.96;47.98;102264.75;4992992;28;113146;-68
2023/05/20 03:50:52;;;;;;;8.88;4.20;;;;;;;14.95;48.05;102257.66;4991438;28;123304;-68
2023/05/20 03:53:20;;;;;;;7.70;4.20;;;;;;;14.93;48.05;102267.53;5025268;27;122689;-67
2023/05/20 03:55:47;;;;;;;8.88;4.18;;;;;;;14.92;48.12;102268.47;5005545;28;113168;-66
2023/05/20 03:58:14;;;;;;;9.88;4.28;;;;;;;14.93;48.54;102264.84;5019349;28;112192;-68
2023/05/20 04:00:42;;;;;;;8.90;4.45;;;;;;;14.91;48.20;102264.03;5024013;27;125442;-69
2023/05/20 04:03:10;;;;;;;10.85;4.50;;;;;;;14.92;48.35;102268.47;4990966;28;123166;-69
2023/05/20 04:05:38;;;;;;;7.72;4.25;;;;;;;14.91;48.32;102266.72;4991302;28;112691;-68
2023/05/20 04:08:13;;;;;;;9.55;4.70;;;;;;;14.91;48.23;102264.03;4991628;28;113041;-68
2023/05/20 04:10:41;;;;;;;8.00;4.22;;;;;;;14.90;48.49;102254.31;4991341;28;122866;-68
2023/05/20 04:13:10;;;;;;;9.20;4.57;;;;;;;14.90;48.41;102262.31;4975166;28;124991;-68
2023/05/20 04:15:38;;;;;;;8.13;4.60;;;;;;;14.89;48.56;102257.03;4991482;28;113325;-69
2023/05/20 04:18:05;;;;;;;6.63;4.32;;;;;;;14.88;48.46;102256.19;5009571;28;113935;-68
2023/05/20 04:20:33;;;;;;;10.90;4.40;;;;;;;14.88;48.64;102261.53;5009001;28;124194;-68
2023/05/20 04:23:00;;;;;;;9.98;4.55;;;;;;;14.88;48.69;102265.97;4990795;28;123619;-69
2023/05/20 04:25:27;;;;;;;8.43;4.65;;;;;;;14.89;48.73;102271.25;4990670;28;114669;-68
2023/05/20 04:27:56;;;;;;;10.57;4.78;;;;;;;14.89;48.90;102273.91;4991497;28;115751;-68
2023/05/20 04:30:24;;;;;;;10.52;4.82;;;;;;;14.92;48.82;102273.81;4991216;28;123516;-69
2023/05/20 04:32:51;;;;;;;8.40;4.78;;;;;;;14.95;48.86;102273.66;5009510;28;124593;-68
2023/05/20 04:35:19;;;;;;;7.60;4.35;;;;;;;14.97;49.01;102282.50;4991218;28;115545;-68
2023/05/20 04:37:49;;;;;;;7.68;4.30;;;;;;;15.01;49.18;102274.34;4990864;28;113865;-68
2023/05/20 04:40:17;;;;;;;10.20;4.80;;;;;;;15.02;49.06;102274.28;4991036;28;123536;-68
2023/05/20 04:42:45;;;;;;;7.85;4.13;;;;;;;15.06;49.23;102275.91;4991195;28;123109;-68
2023/05/20 04:45:13;;;;;;;9.45;4.53;;;;;;;15.15;49.38;102274.66;4990662;28;113516;-68
2023/05/20 04:47:43;;;;;;;8.25;4.32;;;;;;;15.24;49.51;102276.94;4990556;28;113433;-68
2023/05/20 04:50:11;;;;;;;10.68;4.18;;;;;;;15.35;49.63;102266.69;4990314;28;124849;-68
2023/05/20 04:52:41;;;;;;;8.30;4.55;;;;;;;15.44;49.44;102269.91;5006542;28;125214;-68
2023/05/20 04:55:11;;;;;;;8.50;4.25;;;;;;;15.52;49.39;102267.75;4990078;28;114869;-68
2023/05/20 04:57:42;;;;;;;12.68;4.20;;;;;;;15.58;49.08;102262.16;4990817;28;113144;-69
2023/05/20 05:00:11;;;;;;;7.85;4.25;;;;;;;15.63;49.10;102265.47;4990305;28;123722;-68
2023/05/20 05:02:39;;;;;;;8.07;4.43;;;;;;;15.66;49.10;102260.03;4990131;28;123383;-68
2023/05/20 05:05:07;;;;;;;8.05;4.07;;;;;;;15.70;49.06;102266.09;4973871;28;113504;-68
2023/05/20 05:07:34;;;;;;;6.53;4.07;;;;;;;15.73;48.93;102271.31;4991121;28;113263;-68
2023/05/20 05:10:02;;;;;;;7.28;4.10;;;;;;;15.76;48.89;102265.84;4989852;28;123861;-68
2023/05/20 05:12:30;;;;;;;8.73;4.13;;;;;;;15.80;48.96;102269.25;4989003;28;123620;-68
2023/05/20 05:14:58;;;;;;;12.10;4.50;;;;;;;15.83;49.08;102261.13;5009238;28;114734;-68
2023/05/20 05:17:27;;;;;;;9.80;4.32;;;;;;;15.87;48.95;102262.72;4990931;28;113405;-68
2023/05/20 05:19:56;;;;;;;6.68;4.00;;;;;;;15.90;49.03;102257.25;5003074;28;124278;-68
2023/05/20 05:22:25;;;;;;;7.95;3.88;;;;;;;15.93;48.86;102251.75;4991511;28;123276;-69
2023/05/20 05:24:54;;;;;;;8.15;4.20;;;;;;;15.97;49.08;102253.34;4990560;28;113875;-68
2023/05/20 05:27:21;;;;;;;9.85;4.03;;;;;;;16.01;48.79;102260.31;4990767;28;112946;-68
2023/05/20 05:29:49;;;;;;;6.43;3.60;;;;;;;16.05;48.88;102255.66;4991627;28;124780;-68
2023/05/20 05:32:17;;;;;;;6.63;4.03;;;;;;;16.07;48.86;102260.00;4990969;28;123478;-68
2023/05/20 05:34:45;;;;;;;8.32;4.25;;;;;;;16.10;48.86;102265.19;4994127;28;112408;-68
2023/05/20 05:37:12;;;;;;;8.82;4.13;;;;;;;16.15;48.76;102259.66;4977653;28;113547;-68
2023/05/20 05:39:41;;;;;;;6.43;4.18;;;;;;;16.18;48.78;102256.88;4993589;28;123464;-68
2023/05/20 05:42:08;;;;;;;6.90;3.83;;;;;;;16.24;48.66;102255.72;4993945;28;124623;-68
2023/05/20 05:44:35;;;;;;;8.13;4.10;;;;;;;16.27;48.88;102255.53;4993577;28;113840;-68
2023/05/20 05:47:05;;;;;;;8.07;3.90;;;;;;;16.32;48.80;102258.88;5027463;27;113537;-69
2023/05/20 05:49:33;;;;;;;7.30;4.30;;;;;;;16.37;48.83;102262.22;4994002;28;123517;-68
2023/05/20 05:52:00;;;;;;;8.18;3.88;;;;;;;16.42;48.87;102254.81;4994295;28;122905;-68
2023/05/20 05:54:28;;;;;;;6.53;3.80;;;;;;;16.47;48.38;102258.16;4993096;28;113386;-68
2023/05/20 05:56:56;;;;;;;7.85;3.95;;;;;;;16.53;48.54;102257.84;4994150;28;113185;-68
2023/05/20 05:59:25;;;;;;;8.68;3.80;;;;;;;16.59;48.41;102258.50;4976860;28;123723;-68
2023/05/20 06:01:52;;;;;;;5.30;3.65;;;;;;;16.64;48.38;102254.69;4993192;28;122693;-69
2023/05/20 06:04:19;;;;;;;8.10;3.88;;;;;;;16.69;48.46;102257.16;4992554;28;115008;-68
2023/05/20 06:06:48;;;;;;;9.05;3.85;;;;;;;16.77;48.22;102254.97;5010140;28;114076;-69
2023/05/20 06:09:15;;;;;;;6.13;3.70;;;;;;;16.84;48.33;102248.41;4992732;28;124073;-69
2023/05/20 06:11:43;;;;;;;7.45;4.18;;;;;;;16.92;48.06;102248.88;4992218;28;123067;-69
2023/05/20 06:14:10;;;;;;;5.25;3.78;;;;;;;17.01;48.01;102244.00;5011474;28;114445;-69
2023/05/20 06:16:38;;;;;;;6.93;3.63;;;;;;;17.10;48.10;102247.13;4993079;28;112340;-69
2023/05/20 06:19:08;;;;;;;5.90;3.50;;;;;;;17.21;48.15;102241.19;4976244;28;123224;-68
2023/05/20 06:21:35;;;;;;;7.32;3.95;;;;;;;17.35;47.99;102245.88;5011441;28;124107;-69
2023/05/20 06:24:03;;;;;;;9.40;3.80;;;;;;;17.48;47.78;102240.75;4976762;28;113341;-68
2023/05/20 06:26:31;;;;;;;9.82;3.75;;;;;;;17.60;47.60;102232.06;4999816;28;113142;-68
2023/05/20 06:28:59;;;;;;;5.05;3.22;;;;;;;17.73;47.46;102228.75;5004190;28;123905;-69
2023/05/20 06:31:26;;;;;;;5.57;3.35;;;;;;;17.85;47.23;102231.66;5011163;28;123934;-69
2023/05/20 06:33:53;;;;;;;7.13;3.53;;;;;;;17.99;47.23;102225.56;5011650;28;114508;-69
2023/05/20 06:36:20;;;;;;;9.63;3.90;;;;;;;18.12;46.97;102219.50;5026120;27;113293;-68
2023/05/20 06:38:48;;;;;;;6.07;3.35;;;;;;;18.23;46.86;102222.47;5008966;28;123745;-69
2023/05/20 06:41:15;;;;;;;6.28;3.72;;;;;;;18.35;46.72;102216.44;4979075;28;123119;-69
2023/05/20 06:43:42;;;;;;;6.22;3.42;;;;;;;18.47;46.41;102220.25;4992384;28;114319;-69
2023/05/20 06:46:29;;;;;;;4.43;3.10;;;;;;;18.60;46.29;102215.06;4993012;28;112914;-69
2023/05/20 06:49:03;;;;;;;4.97;3.30;;;;;;;18.75;46.04;102207.94;5025543;27;123249;-69
2023/05/20 06:51:30;;;;;;;4.88;3.33;;;;;;;18.90;46.50;102211.59;4992229;28;124311;-69
2023/05/20 06:53:59;;;;;;;5.90;3.47;;;;;;;19.07;45.90;102214.13;4991852;28;114622;-69
2023/05/20 06:56:26;;;;;;;7.45;3.20;;;;;;;19.19;45.46;102208.06;5011184;28;115092;-69
2023/05/20 06:58:54;;;;;;;7.10;3.30;;;;;;;19.33;45.26;102206.34;5027454;27;124184;-69
2023/05/20 07:01:21;;;;;;;6.50;3.38;;;;;;;19.47;45.37;102201.00;4994299;28;122713;-71
2023/05/20 07:03:50;;;;;;;6.70;3.15;;;;;;;19.62;44.72;102204.56;4995598;28;113756;-70
2023/05/20 07:06:18;;;;;;;5.95;3.30;;;;;;;19.74;44.43;102203.84;4994386;28;113600;-69
2023/05/20 07:08:45;;;;;;;5.80;3.42;;;;;;;19.82;44.44;102195.31;5014042;28;125234;-69
2023/05/20 07:11:12;;;;;;;4.40;3.00;;;;;;;19.91;44.16;102200.13;4985396;28;122411;-69
2023/05/20 07:13:40;;;;;;;4.35;2.90;;;;;;;20.00;44.02;102199.53;5021187;28;114493;-69
2023/05/20 07:16:07;;;;;;;4.70;3.00;;;;;;;20.12;44.13;102202.41;5041922;27;113774;-69
2023/05/20 07:18:37;;;;;;;4.07;2.72;;;;;;;20.26;43.68;102205.06;5010800;28;124890;-69
2023/05/20 07:21:04;;;;;;;5.70;3.00;;;;;;;20.34;43.34;102197.38;5047454;28;123205;-69
2023/05/20 07:23:54;;;;;;;5.60;2.78;;;;;;;20.40;42.91;102202.34;5008674;28;114329;-69
2023/05/20 07:26:22;;;;;;;5.60;3.20;;;;;;;20.46;43.01;102190.31;4996310;28;114808;-69
2023/05/20 07:28:50;;;;;;;5.50;2.85;;;;;;;20.55;43.02;102188.84;5011714;28;124949;-69
2023/05/20 07:31:17;;;;;;;5.07;3.17;;;;;;;20.67;42.94;102182.69;5026536;27;122689;-69
2023/05/20 07:33:44;;;;;;;4.32;2.95;;;;;;;20.77;42.58;102183.78;5012145;28;114301;-69
2023/05/20 07:36:12;;;;;;;4.03;2.70;;;;;;;20.89;42.31;102175.84;4995339;28;113967;-68
2023/05/20 07:38:41;;;;;;;6.00;3.42;;;;;;;20.99;41.82;102177.81;4991612;28;123154;-69
2023/05/20 07:41:28;;;;;;;4.68;2.60;;;;;;;21.07;41.62;102157.59;4987289;28;123233;-68
2023/05/20 07:43:55;;;;;;;4.97;3.30;;;;;;;21.12;41.38;102171.59;4999571;28;114887;-69
2023/05/20 07:46:22;;;;;;;4.93;3.42;;;;;;;21.14;41.18;102165.13;4991909;28;113916;-69
2023/05/20 07:48:50;;;;;;;5.50;3.13;;;;;;;21.17;41.10;102164.94;4991686;28;123384;-69
2023/05/20 07:51:17;;;;;;;6.88;3.28;;;;;;;21.26;40.96;102159.88;4991678;28;123658;-69
2023/05/20 07:53:45;;;;;;;5.30;2.92;;;;;;;21.32;40.29;102167.50;4992153;28;113459;-69
2023/05/20 07:56:12;;;;;;;5.15;2.92;;;;;;;21.36;40.37;102163.63;5009797;28;113755;-69
2023/05/20 07:58:58;;;;;;;5.57;3.08;;;;;;;21.42;40.71;102152.44;4991800;28;123430;-69
2023/05/20 08:01:29;;;;;;;5.43;3.10;;;;;;;21.48;40.36;102162.81;4992331;28;125251;-69
2023/05/20 08:03:56;;;;;;;4.32;2.90;;;;;;;21.54;40.16;102167.78;4992388;28;113307;-70
2023/05/20 08:06:24;;;;;;;6.80;3.35;;;;;;;21.61;39.87;102167.34;4991691;28;113336;-70
2023/05/20 08:08:55;;;;;;;7.40;3.03;;;;;;;21.62;39.73;102158.28;4990937;28;123116;-70
2023/05/20 08:11:28;;;;;;;6.43;3.45;;;;;;;21.65;40.12;102158.06;5008941;28;123142;-69
2023/05/20 08:13:56;;;;;;;4.78;3.03;;;;;;;21.70;39.92;102151.38;4991304;28;113483;-70
2023/05/20 08:16:26;;;;;;;4.28;3.17;;;;;;;21.75;39.50;102164.53;4991062;28;113391;-70
2023/05/20 08:18:54;;;;;;;8.48;3.08;;;;;;;21.80;39.39;102159.66;4991318;28;123210;-70
2023/05/20 08:21:22;;;;;;;5.68;2.80;;;;;;;21.81;39.28;102153.28;5009751;28;124115;-69
2023/05/20 08:23:49;;;;;;;4.35;3.05;;;;;;;21.80;38.98;102156.97;4991040;28;113655;-70
2023/05/20 08:26:17;;;;;;;4.35;2.95;;;;;;;21.83;39.11;102161.28;4975624;28;113801;-69
2023/05/20 08:28:44;;;;;;;4.65;3.00;;;;;;;21.90;39.19;102158.03;5009119;28;124188;-70
2023/05/20 08:31:12;;;;;;;7.75;2.70;;;;;;;21.97;38.58;102159.31;4990824;28;123190;-70
2023/05/20 08:33:39;;;;;;;8.35;3.00;;;;;;;22.01;38.24;102156.41;5023247;27;115255;-69
2023/05/20 08:36:07;;;;;;;7.50;3.00;;;;;;;22.02;38.01;102155.41;4991493;28;114145;-70
2023/05/20 08:38:35;;;;;;;6.28;2.50;;;;;;;22.00;38.23;102151.97;4979570;28;123211;-70
2023/05/20 08:41:02;;;;;;;7.10;2.90;;;;;;;22.02;38.42;102145.50;4988927;28;124655;-70
2023/05/20 08:43:31;;;;;;;5.50;2.90;;;;;;;22.04;38.35;102164.25;4990958;28;113560;-70
2023/05/20 08:46:01;;;;;;;6.53;2.72;;;;;;;22.05;38.06;102144.41;4990681;28;112524;-70
2023/05/20 08:48:32;;;;;;;5.97;2.88;;;;;;;22.05;37.79;102144.41;4990606;28;125262;-70
2023/05/20 08:51:02;;;;;;;4.18;2.58;;;;;;;22.05;37.58;102133.63;4990558;28;122305;-70
2023/05/20 08:53:29;;;;;;;4.88;2.80;;;;;;;22.05;37.84;102133.63;5009000;28;114040;-70
2023/05/20 08:56:01;;;;;;;5.20;2.90;;;;;;;22.05;37.93;102128.22;4993798;28;113329;-70
2023/05/20 08:58:30;;;;;;;3.40;2.63;;;;;;;22.09;37.85;102124.31;5034116;27;123023;-70
2023/05/20 09:00:57;;;;;;;6.32;2.85;;;;;;;22.12;37.76;102134.91;5008944;28;124517;-70
2023/05/20 09:03:25;;;;;;;4.53;2.90;;;;;;;22.14;37.71;102132.94;4995557;28;114097;-72
2023/05/20 09:05:53;;;;;;;4.15;2.78;;;;;;;22.14;37.68;102122.16;5008872;28;114062;-70
2023/05/20 09:08:25;;;;;;;4.95;2.90;;;;;;;22.15;37.87;102134.66;5009037;28;124021;-70
2023/05/20 09:10:53;;;;;;;5.70;3.15;;;;;;;22.22;37.94;102125.13;5005560;28;124087;-70
2023/05/20 09:13:20;;;;;;;3.97;2.50;;;;;;;22.29;37.69;102123.72;5008807;28;114302;-70
2023/05/20 09:15:50;;;;;;;5.88;2.90;;;;;;;22.33;37.61;102127.06;5008601;28;114004;-70
2023/05/20 09:18:17;;;;;;;6.35;2.92;;;;;;;22.34;37.35;102128.81;5008330;28;124655;-70
2023/05/20 09:20:46;;;;;;;8.90;2.80;;;;;;;22.34;37.41;102124.25;4990701;28;123690;-70
2023/05/20 09:23:14;;;;;;;4.82;2.60;;;;;;;22.35;37.33;102120.56;4990667;28;115247;-70
2023/05/20 09:25:41;;;;;;;3.70;2.50;;;;;;;22.38;37.16;102118.63;5010090;28;114703;-69
2023/05/20 09:28:08;;;;;;;4.22;2.10;;;;;;;22.40;37.39;102105.88;5011804;28;123970;-69
2023/05/20 09:30:35;;;;;;;3.42;2.10;;;;;;;22.46;37.17;102110.81;4989739;28;122983;-69
2023/05/20 09:33:04;;;;;;;3.55;2.55;;;;;;;22.51;37.05;102108.66;5008958;28;114015;-69
2023/05/20 09:35:35;;;;;;;5.10;2.35;;;;;;;22.59;37.05;102106.22;4990585;28;113935;-69
2023/05/20 09:38:06;;;;;;;4.55;2.40;;;;;;;22.63;36.56;102118.50;5007639;28;123867;-69
2023/05/20 09:40:36;;;;;;;4.25;2.58;;;;;;;22.64;36.62;102108.53;5024242;27;124449;-69
2023/05/20 09:43:07;;;;;;;3.53;2.47;;;;;;;22.63;36.69;102096.03;4991461;28;114587;-68
2023/05/20 09:45:34;;;;;;;4.65;2.35;;;;;;;22.66;36.60;102106.59;4988724;28;113431;-69
2023/05/20 09:48:07;;;;;;;5.60;2.25;;;;;;;22.67;36.51;102117.28;5007943;28;123737;-69
2023/05/20 09:50:35;;;;;;;2.92;2.35;;;;;;;22.68;36.08;102121.72;4989453;28;124421;-69
2023/05/20 09:53:03;;;;;;;5.32;2.33;;;;;;;22.70;36.31;102127.84;5008703;28;114386;-69
2023/05/20 09:55:31;;;;;;;6.10;2.38;;;;;;;22.75;36.26;102111.28;5007877;28;113728;-69
2023/05/20 09:58:01;;;;;;;5.60;2.75;;;;;;;22.76;36.18;102112.16;5008387;28;124741;-69
2023/05/20 10:00:29;;;;;;;4.72;2.92;;;;;;;22.80;36.35;102109.09;4990708;28;124319;-69
2023/05/20 10:02:57;;;;;;;4.05;2.53;;;;;;;22.83;36.38;102102.59;5009810;28;114708;-69
2023/05/20 10:05:36;;;;;;;5.13;2.40;;;;;;;22.84;36.14;102107.03;5010238;28;114604;-69
2023/05/20 10:08:06;;;;;;;3.53;2.42;;;;;;;22.90;36.30;102103.84;4993629;28;123904;-69
2023/05/20 10:10:39;;;;;;;3.75;2.63;;;;;;;22.96;36.20;102107.91;4995573;28;124457;-69
2023/05/20 10:13:52;;;;;;;3.90;2.58;;;;;;;22.99;36.19;102086.91;5008036;28;114813;-69
2023/05/20 10:16:30;;;;;;;4.03;2.30;;;;;;;23.03;36.38;102087.53;4997586;28;115382;-69
2023/05/20 10:19:12;;;;;;;3.10;2.13;;;;;;;23.07;36.11;102079.09;5008248;28;124037;-69
2023/05/20 10:21:39;;;;;;;3.05;2.10;;;;;;;23.12;36.04;102082.31;5009853;28;123989;-69
2023/05/20 10:24:08;;;;;;;5.72;2.40;;;;;;;23.21;36.12;102074.47;5011887;28;115309;-69
2023/05/20 10:26:37;;;;;;;4.22;2.40;;;;;;;23.29;35.57;102088.22;4993722;28;113829;-69
2023/05/20 10:29:17;;;;;;;6.97;2.08;;;;;;;23.30;35.71;102068.31;4993570;28;123325;-69
2023/05/20 10:31:48;;;;;;;3.28;2.13;;;;;;;23.36;35.89;102073.25;5009875;28;124313;-70
2023/05/20 10:34:16;;;;;;;3.72;2.20;;;;;;;23.48;35.49;102066.84;5009707;28;114192;-70
2023/05/20 10:37:04;;;;;;;3.25;2.17;;;;;;;23.57;35.80;102067.09;5026984;27;113628;-70
2023/05/20 10:39:33;;;;;;;3.50;2.20;;;;;;;23.59;35.29;102062.44;5008582;28;124891;-70
2023/05/20 10:42:07;;;;;;;4.43;2.20;;;;;;;23.50;34.57;102059.47;4993771;28;122947;-70
2023/05/20 10:44:45;;;;;;;3.53;2.53;;;;;;;23.42;35.03;102056.53;4992856;28;113689;-70
2023/05/20 10:47:13;;;;;;;3.72;2.20;;;;;;;23.44;35.40;102059.97;5011643;28;114730;-69
2023/05/20 10:49:45;;;;;;;2.85;1.98;;;;;;;23.54;35.24;102060.06;5008027;28;124403;-70
2023/05/20 10:52:13;;;;;;;5.07;2.58;;;;;;;23.60;35.09;102065.00;5011256;28;124163;-70
2023/05/20 10:54:45;;;;;;;4.55;2.17;;;;;;;23.61;34.79;102063.16;5010448;28;114271;-70
2023/05/20 10:57:16;;;;;;;4.05;2.10;;;;;;;23.63;35.14;102058.47;5011690;28;114448;-70
2023/05/20 10:59:43;;;;;;;4.43;2.20;;;;;;;23.64;34.98;102060.19;5008751;28;124954;-69
2023/05/20 11:02:12;;;;;;;3.50;2.28;;;;;;;23.62;34.67;102059.44;4993258;28;123674;-70
2023/05/20 11:04:42;;;;;;;3.75;2.50;;;;;;;23.56;34.73;102062.66;5011200;28;115289;-69
2023/05/20 11:07:09;;;;;;;4.70;2.15;;;;;;;23.50;34.88;102047.78;5012586;28;116405;-70
2023/05/20 11:09:36;;;;;;;4.60;2.60;;;;;;;23.51;35.42;102050.38;5011274;28;123716;-70
2023/05/20 11:12:05;;;;;;;4.50;2.67;;;;;;;23.56;35.43;102051.84;5010910;28;123868;-70
2023/05/20 11:14:33;;;;;;;3.65;2.53;;;;;;;23.59;35.15;102040.78;5011247;28;114520;-70
2023/05/20 11:17:01;;;;;;;3.22;2.28;;;;;;;23.59;34.92;102046.19;5013130;28;113962;-70
2023/05/20 11:19:28;;;;;;;4.47;2.38;;;;;;;23.58;35.35;102049.88;5004326;28;123527;-70
2023/05/20 11:21:55;;;;;;;3.92;2.60;;;;;;;23.60;35.27;102042.50;5010879;28;123225;-70
2023/05/20 11:24:25;;;;;;;4.88;2.28;;;;;;;23.67;35.57;102027.47;4993426;28;113480;-70